sensor_id;sensor_type;location;lat;lon;timestamp;pressure;altitude;pressure_sealevel;temperature;humidity
62864;BME280;48954;59.950;11.014;2024-03-17T00:00:22;100393.10;;;-5.82;91.10
62864;BME280;48954;59.950;11.014;2024-03-17T00:03:09;100402.59;;;-5.85;91.07
62864;BME280;48954;59.950;11.014;2024-03-17T00:05:35;100405.27;;;-5.88;91.10
62864;BME280;48954;59.950;11.014;2024-03-17T00:08:02;100406.79;;;-5.90;91.04
62864;BME280;48954;59.950;11.014;2024-03-17T00:10:31;100411.41;;;-5.92;91.01
62864;BME280;48954;59.950;11.014;2024-03-17T00:12:57;100414.89;;;-5.94;90.95
62864;BME280;48954;59.950;11.014;2024-03-17T00:15:23;100418.60;;;-5.96;90.92
62864;BME280;48954;59.950;11.014;2024-03-17T00:17:49;100423.74;;;-5.99;90.98
62864;BME280;48954;59.950;11.014;2024-03-17T00:20:18;100428.88;;;-6.01;91.05
62864;BME280;48954;59.950;11.014;2024-03-17T00:22:48;100434.98;;;-6.02;91.19
62864;BME280;48954;59.950;11.014;2024-03-17T00:25:19;100438.39;;;-6.03;91.37
62864;BME280;48954;59.950;11.014;2024-03-17T00:27:45;100443.04;;;-6.05;90.92
62864;BME280;48954;59.950;11.014;2024-03-17T00:30:13;100441.55;;;-6.07;91.06
62864;BME280;48954;59.950;11.014;2024-03-17T00:32:39;100445.58;;;-6.09;90.96
62864;BME280;48954;59.950;11.014;2024-03-17T00:35:06;100449.55;;;-6.11;90.98
62864;BME280;48954;59.950;11.014;2024-03-17T00:37:33;100453.52;;;-6.16;90.78
62864;BME280;48954;59.950;11.014;2024-03-17T00:40:01;100459.83;;;-6.18;90.79
62864;BME280;48954;59.950;11.014;2024-03-17T00:42:27;100465.10;;;-6.22;90.76
62864;BME280;48954;59.950;11.014;2024-03-17T00:44:53;100464.75;;;-6.26;90.65
62864;BME280;48954;59.950;11.014;2024-03-17T00:47:34;100465.69;;;-6.31;90.53
62864;BME280;48954;59.950;11.014;2024-03-17T00:50:01;100468.71;;;-6.34;90.59
62864;BME280;48954;59.950;11.014;2024-03-17T00:52:27;100465.91;;;-6.35;90.79
62864;BME280;48954;59.950;11.014;2024-03-17T00:54:56;100470.94;;;-6.35;90.93
62864;BME280;48954;59.950;11.014;2024-03-17T00:57:22;100471.13;;;-6.34;90.81
62864;BME280;48954;59.950;11.014;2024-03-17T00:59:48;100471.42;;;-6.35;90.83
62864;BME280;48954;59.950;11.014;2024-03-17T01:02:15;100477.57;;;-6.35;90.72
62864;BME280;48954;59.950;11.014;2024-03-17T01:04:42;100479.86;;;-6.36;90.81
62864;BME280;48954;59.950;11.014;2024-03-17T01:07:08;100480.80;;;-6.37;90.98
62864;BME280;48954;59.950;11.014;2024-03-17T01:09:34;100480.94;;;-6.38;90.81
62864;BME280;48954;59.950;11.014;2024-03-17T01:12:00;100481.91;;;-6.40;90.93
62864;BME280;48954;59.950;11.014;2024-03-17T01:14:28;100485.34;;;-6.41;90.53
62864;BME280;48954;59.950;11.014;2024-03-17T01:16:57;100487.90;;;-6.44;90.56
62864;BME280;48954;59.950;11.014;2024-03-17T01:19:28;100496.04;;;-6.49;90.46
62864;BME280;48954;59.950;11.014;2024-03-17T01:22:14;100508.10;;;-6.54;90.37
62864;BME280;48954;59.950;11.014;2024-03-17T01:24:41;100518.91;;;-6.60;90.30
62864;BME280;48954;59.950;11.014;2024-03-17T01:27:08;100517.13;;;-6.65;90.00
62864;BME280;48954;59.950;11.014;2024-03-17T01:29:34;100518.65;;;-6.72;90.09
62864;BME280;48954;59.950;11.014;2024-03-17T01:32:00;100524.70;;;-6.80;89.90
62864;BME280;48954;59.950;11.014;2024-03-17T01:34:26;100529.92;;;-6.89;89.61
62864;BME280;48954;59.950;11.014;2024-03-17T01:36:52;100531.77;;;-6.98;89.36
62864;BME280;48954;59.950;11.014;2024-03-17T01:39:21;100531.98;;;-7.05;89.38
62864;BME280;48954;59.950;11.014;2024-03-17T01:41:47;100531.27;;;-7.14;89.41
62864;BME280;48954;59.950;11.014;2024-03-17T01:44:23;100529.27;;;-7.20;89.26
62864;BME280;48954;59.950;11.014;2024-03-17T01:46:50;100529.05;;;-7.26;89.23
62864;BME280;48954;59.950;11.014;2024-03-17T01:49:17;100533.90;;;-7.32;89.33
62864;BME280;48954;59.950;11.014;2024-03-17T01:51:45;100533.98;;;-7.42;89.14
62864;BME280;48954;59.950;11.014;2024-03-17T01:54:12;100537.33;;;-7.48;89.15
62864;BME280;48954;59.950;11.014;2024-03-17T01:56:39;100536.30;;;-7.52;89.45
62864;BME280;48954;59.950;11.014;2024-03-17T01:59:07;100535.41;;;-7.55;89.36
62864;BME280;48954;59.950;11.014;2024-03-17T02:01:34;100535.80;;;-7.57;89.29
62864;BME280;48954;59.950;11.014;2024-03-17T02:04:01;100533.23;;;-7.60;89.36
62864;BME280;48954;59.950;11.014;2024-03-17T02:06:27;100534.11;;;-7.63;89.37
62864;BME280;48954;59.950;11.014;2024-03-17T02:08:54;100531.75;;;-7.67;89.28
62864;BME280;48954;59.950;11.014;2024-03-17T02:11:27;100533.48;;;-7.72;89.10
62864;BME280;48954;59.950;11.014;2024-03-17T02:13:55;100539.73;;;-7.77;88.86
62864;BME280;48954;59.950;11.014;2024-03-17T02:16:22;100537.36;;;-7.81;88.88
62864;BME280;48954;59.950;11.014;2024-03-17T02:18:48;100539.65;;;-7.86;88.88
62864;BME280;48954;59.950;11.014;2024-03-17T02:21:14;100535.89;;;-7.92;88.79
62864;BME280;48954;59.950;11.014;2024-03-17T02:23:43;100544.04;;;-7.99;88.57
62864;BME280;48954;59.950;11.014;2024-03-17T02:26:10;100545.78;;;-8.05;88.58
62864;BME280;48954;59.950;11.014;2024-03-17T02:28:41;100555.27;;;-8.09;88.76
62864;BME280;48954;59.950;11.014;2024-03-17T02:31:09;100559.37;;;-8.15;88.53
62864;BME280;48954;59.950;11.014;2024-03-17T02:33:35;100566.02;;;-8.20;88.46
62864;BME280;48954;59.950;11.014;2024-03-17T02:36:02;100567.31;;;-8.22;88.73
62864;BME280;48954;59.950;11.014;2024-03-17T02:38:28;100566.31;;;-8.27;88.70
62864;BME280;48954;59.950;11.014;2024-03-17T02:40:53;100566.34;;;-8.32;88.65
62864;BME280;48954;59.950;11.014;2024-03-17T02:43:20;100571.14;;;-8.35;88.69
62864;BME280;48954;59.950;11.014;2024-03-17T02:45:47;100567.83;;;-8.40;88.35
62864;BME280;48954;59.950;11.014;2024-03-17T02:48:13;100576.16;;;-8.44;88.51
62864;BME280;48954;59.950;11.014;2024-03-17T02:50:39;100577.13;;;-8.46;88.81
62864;BME280;48954;59.950;11.014;2024-03-17T02:53:05;100573.72;;;-8.47;88.80
62864;BME280;48954;59.950;11.014;2024-03-17T02:55:30;100576.67;;;-8.47;88.80
62864;BME280;48954;59.950;11.014;2024-03-17T02:57:56;100578.16;;;-8.48;88.82
62864;BME280;48954;59.950;11.014;2024-03-17T03:00:22;100579.03;;;-8.52;88.49
62864;BME280;48954;59.950;11.014;2024-03-17T03:02:48;100583.98;;;-8.56;88.36
62864;BME280;48954;59.950;11.014;2024-03-17T03:05:14;100586.92;;;-8.60;88.27
62864;BME280;48954;59.950;11.014;2024-03-17T03:07:40;100589.08;;;-8.66;88.26
62864;BME280;48954;59.950;11.014;2024-03-17T03:10:07;100592.49;;;-8.69;88.30
62864;BME280;48954;59.950;11.014;2024-03-17T03:12:33;100593.63;;;-8.70;88.45
62864;BME280;48954;59.950;11.014;2024-03-17T03:14:59;100597.58;;;-8.70;88.73
62864;BME280;48954;59.950;11.014;2024-03-17T03:17:26;100597.49;;;-8.71;88.37
62864;BME280;48954;59.950;11.014;2024-03-17T03:19:51;100599.59;;;-8.73;88.56
62864;BME280;48954;59.950;11.014;2024-03-17T03:22:17;100600.20;;;-8.74;88.63
62864;BME280;48954;59.950;11.014;2024-03-17T03:24:44;100605.91;;;-8.75;88.44
62864;BME280;48954;59.950;11.014;2024-03-17T03:27:10;100619.14;;;-8.78;88.41
62864;BME280;48954;59.950;11.014;2024-03-17T03:29:37;100623.82;;;-8.81;88.39
62864;BME280;48954;59.950;11.014;2024-03-17T03:32:03;100635.16;;;-8.84;88.23
62864;BME280;48954;59.950;11.014;2024-03-17T03:34:29;100638.78;;;-8.88;88.28
62864;BME280;48954;59.950;11.014;2024-03-17T03:36:56;100639.04;;;-8.92;88.07
62864;BME280;48954;59.950;11.014;2024-03-17T03:39:22;100637.54;;;-8.96;87.93
62864;BME280;48954;59.950;11.014;2024-03-17T03:41:48;100639.44;;;-8.99;87.83
62864;BME280;48954;59.950;11.014;2024-03-17T03:44:14;100638.95;;;-9.02;88.09
62864;BME280;48954;59.950;11.014;2024-03-17T03:46:40;100644.05;;;-9.06;88.06
62864;BME280;48954;59.950;11.014;2024-03-17T03:49:06;100643.31;;;-9.08;87.95
62864;BME280;48954;59.950;11.014;2024-03-17T03:51:32;100648.58;;;-9.09;88.21
62864;BME280;48954;59.950;11.014;2024-03-17T03:53:58;100655.59;;;-9.11;88.02
62864;BME280;48954;59.950;11.014;2024-03-17T03:56:24;100660.27;;;-9.14;88.24
62864;BME280;48954;59.950;11.014;2024-03-17T03:58:50;100662.68;;;-9.15;88.06
62864;BME280;48954;59.950;11.014;2024-03-17T04:01:16;100669.95;;;-9.16;88.28
62864;BME280;48954;59.950;11.014;2024-03-17T04:03:42;100671.70;;;-9.18;88.05
62864;BME280;48954;59.950;11.014;2024-03-17T04:06:11;100672.45;;;-9.20;88.06
62864;BME280;48954;59.950;11.014;2024-03-17T04:08:39;100678.18;;;-9.20;88.43
62864;BME280;48954;59.950;11.014;2024-03-17T04:11:06;100680.27;;;-9.20;88.38
62864;BME280;48954;59.950;11.014;2024-03-17T04:13:33;100683.10;;;-9.17;88.93
62864;BME280;48954;59.950;11.014;2024-03-17T04:16:00;100687.20;;;-9.15;89.13
62864;BME280;48954;59.950;11.014;2024-03-17T04:18:28;100683.52;;;-9.15;88.81
62864;BME280;48954;59.950;11.014;2024-03-17T04:20:57;100688.71;;;-9.15;88.66
62864;BME280;48954;59.950;11.014;2024-03-17T04:23:24;100692.70;;;-9.17;88.61
62864;BME280;48954;59.950;11.014;2024-03-17T04:25:51;100701.67;;;-9.19;88.50
62864;BME280;48954;59.950;11.014;2024-03-17T04:28:17;100699.10;;;-9.22;88.16
62864;BME280;48954;59.950;11.014;2024-03-17T04:30:43;100694.23;;;-9.26;88.04
62864;BME280;48954;59.950;11.014;2024-03-17T04:33:09;100690.34;;;-9.31;88.01
62864;BME280;48954;59.950;11.014;2024-03-17T04:35:36;100688.45;;;-9.34;87.85
62864;BME280;48954;59.950;11.014;2024-03-17T04:38:03;100694.45;;;-9.39;87.96
62864;BME280;48954;59.950;11.014;2024-03-17T04:40:30;100701.45;;;-9.42;87.89
62864;BME280;48954;59.950;11.014;2024-03-17T04:42:57;100702.79;;;-9.46;87.89
62864;BME280;48954;59.950;11.014;2024-03-17T04:45:23;100708.92;;;-9.49;87.88
62864;BME280;48954;59.950;11.014;2024-03-17T04:47:51;100710.81;;;-9.51;87.90
62864;BME280;48954;59.950;11.014;2024-03-17T04:50:16;100712.52;;;-9.53;87.95
62864;BME280;48954;59.950;11.014;2024-03-17T04:52:44;100712.89;;;-9.56;87.96
62864;BME280;48954;59.950;11.014;2024-03-17T04:55:11;100713.23;;;-9.59;87.85
62864;BME280;48954;59.950;11.014;2024-03-17T04:57:38;100713.36;;;-9.62;87.61
62864;BME280;48954;59.950;11.014;2024-03-17T05:00:05;100719.45;;;-9.63;87.70
62864;BME280;48954;59.950;11.014;2024-03-17T05:02:31;100720.42;;;-9.66;87.76
62864;BME280;48954;59.950;11.014;2024-03-17T05:04:59;100720.30;;;-9.67;87.78
62864;BME280;48954;59.950;11.014;2024-03-17T05:07:25;100729.23;;;-9.68;87.82
62864;BME280;48954;59.950;11.014;2024-03-17T05:09:51;100733.80;;;-9.70;87.51
62864;BME280;48954;59.950;11.014;2024-03-17T05:12:18;100737.09;;;-9.72;87.64
62864;BME280;48954;59.950;11.014;2024-03-17T05:14:44;100742.27;;;-9.75;87.59
62864;BME280;48954;59.950;11.014;2024-03-17T05:17:10;100748.06;;;-9.77;87.50
62864;BME280;48954;59.950;11.014;2024-03-17T05:19:37;100752.48;;;-9.79;87.56
62864;BME280;48954;59.950;11.014;2024-03-17T05:22:03;100754.73;;;-9.81;87.42
62864;BME280;48954;59.950;11.014;2024-03-17T05:24:29;100754.80;;;-9.83;87.36
62864;BME280;48954;59.950;11.014;2024-03-17T05:26:55;100757.75;;;-9.84;87.48
62864;BME280;48954;59.950;11.014;2024-03-17T05:29:21;100754.27;;;-9.84;87.49
62864;BME280;48954;59.950;11.014;2024-03-17T05:31:48;100752.45;;;-9.85;87.48
62864;BME280;48954;59.950;11.014;2024-03-17T05:34:14;100760.33;;;-9.87;87.23
62864;BME280;48954;59.950;11.014;2024-03-17T05:36:40;100758.77;;;-9.90;87.16
62864;BME280;48954;59.950;11.014;2024-03-17T05:39:06;100765.81;;;-9.91;87.02
62864;BME280;48954;59.950;11.014;2024-03-17T05:41:32;100767.89;;;-9.92;87.07
62864;BME280;48954;59.950;11.014;2024-03-17T05:44:00;100775.35;;;-9.92;87.05
62864;BME280;48954;59.950;11.014;2024-03-17T05:46:27;100777.88;;;-9.92;86.87
62864;BME280;48954;59.950;11.014;2024-03-17T05:48:56;100779.77;;;-9.92;86.75
62864;BME280;48954;59.950;11.014;2024-03-17T05:51:22;100786.05;;;-9.91;87.09
62864;BME280;48954;59.950;11.014;2024-03-17T05:53:58;100794.06;;;-9.90;87.10
62864;BME280;48954;59.950;11.014;2024-03-17T05:56:27;100796.31;;;-9.91;86.81
62864;BME280;48954;59.950;11.014;2024-03-17T05:58:56;100800.79;;;-9.90;86.66
62864;BME280;48954;59.950;11.014;2024-03-17T06:01:22;100800.75;;;-9.88;87.36
62864;BME280;48954;59.950;11.014;2024-03-17T06:03:48;100806.92;;;-9.85;87.03
62864;BME280;48954;59.950;11.014;2024-03-17T06:06:14;100811.27;;;-9.83;87.00
62864;BME280;48954;59.950;11.014;2024-03-17T06:08:40;100812.50;;;-9.83;87.05
62864;BME280;48954;59.950;11.014;2024-03-17T06:11:06;100815.30;;;-9.81;86.63
62864;BME280;48954;59.950;11.014;2024-03-17T06:13:33;100812.98;;;-9.78;86.69
62864;BME280;48954;59.950;11.014;2024-03-17T06:16:02;100813.19;;;-9.76;86.71
62864;BME280;48954;59.950;11.014;2024-03-17T06:18:31;100812.58;;;-9.71;86.78
62864;BME280;48954;59.950;11.014;2024-03-17T06:20:57;100817.06;;;-9.67;86.81
62864;BME280;48954;59.950;11.014;2024-03-17T06:23:25;100819.73;;;-9.62;86.81
62864;BME280;48954;59.950;11.014;2024-03-17T06:25:51;100823.83;;;-9.56;87.09
62864;BME280;48954;59.950;11.014;2024-03-17T06:28:18;100826.39;;;-9.50;86.99
62864;BME280;48954;59.950;11.014;2024-03-17T06:30:44;100826.60;;;-9.42;87.04
62864;BME280;48954;59.950;11.014;2024-03-17T06:33:17;100832.44;;;-9.32;87.16
62864;BME280;48954;59.950;11.014;2024-03-17T06:35:47;100834.21;;;-9.20;87.54
62864;BME280;48954;59.950;11.014;2024-03-17T06:38:14;100833.35;;;-9.06;87.68
62864;BME280;48954;59.950;11.014;2024-03-17T06:40:51;100837.95;;;-8.91;88.02
62864;BME280;48954;59.950;11.014;2024-03-17T06:43:18;100842.48;;;-8.74;88.14
62864;BME280;48954;59.950;11.014;2024-03-17T06:46:06;100846.33;;;-8.56;88.00
62864;BME280;48954;59.950;11.014;2024-03-17T06:48:32;100849.30;;;-8.34;88.32
62864;BME280;48954;59.950;11.014;2024-03-17T06:51:01;100850.33;;;-8.12;88.55
62864;BME280;48954;59.950;11.014;2024-03-17T06:53:30;100849.05;;;-7.90;88.62
62864;BME280;48954;59.950;11.014;2024-03-17T06:56:01;100844.90;;;-7.69;88.73
62864;BME280;48954;59.950;11.014;2024-03-17T06:58:28;100846.87;;;-7.46;88.60
62864;BME280;48954;59.950;11.014;2024-03-17T07:00:59;100854.81;;;-7.22;88.71
62864;BME280;48954;59.950;11.014;2024-03-17T07:03:33;100854.15;;;-6.97;89.00
62864;BME280;48954;59.950;11.014;2024-03-17T07:06:02;100859.06;;;-6.70;88.90
62864;BME280;48954;59.950;11.014;2024-03-17T07:08:42;100862.64;;;-6.43;89.11
62864;BME280;48954;59.950;11.014;2024-03-17T07:11:11;100864.05;;;-6.16;89.16
62864;BME280;48954;59.950;11.014;2024-03-17T07:13:38;100871.80;;;-5.89;88.87
62864;BME280;48954;59.950;11.014;2024-03-17T07:16:06;100874.79;;;-5.61;88.82
62864;BME280;48954;59.950;11.014;2024-03-17T07:18:33;100876.23;;;-5.31;88.66
62864;BME280;48954;59.950;11.014;2024-03-17T07:21:05;100879.87;;;-5.05;88.32
62864;BME280;48954;59.950;11.014;2024-03-17T07:23:46;100877.81;;;-4.82;88.20
62864;BME280;48954;59.950;11.014;2024-03-17T07:26:14;100885.24;;;-4.59;87.88
62864;BME280;48954;59.950;11.014;2024-03-17T07:28:41;100883.46;;;-4.32;87.61
62864;BME280;48954;59.950;11.014;2024-03-17T07:31:09;100884.86;;;-4.06;87.61
62864;BME280;48954;59.950;11.014;2024-03-17T07:33:43;100887.52;;;-3.77;87.96
62864;BME280;48954;59.950;11.014;2024-03-17T07:36:25;100887.35;;;-3.42;87.82
62864;BME280;48954;59.950;11.014;2024-03-17T07:39:01;100888.88;;;-3.12;87.74
62864;BME280;48954;59.950;11.014;2024-03-17T07:41:43;100890.89;;;-2.84;87.15
62864;BME280;48954;59.950;11.014;2024-03-17T07:44:23;100891.25;;;-2.55;86.99
62864;BME280;48954;59.950;11.014;2024-03-17T07:46:49;100890.67;;;-2.26;86.67
62864;BME280;48954;59.950;11.014;2024-03-17T07:49:17;100897.83;;;-1.99;86.66
62864;BME280;48954;59.950;11.014;2024-03-17T07:51:43;100902.51;;;-1.79;86.28
62864;BME280;48954;59.950;11.014;2024-03-17T07:54:09;100909.31;;;-1.53;85.71
62864;BME280;48954;59.950;11.014;2024-03-17T07:56:38;100914.81;;;-1.30;85.58
62864;BME280;48954;59.950;11.014;2024-03-17T07:59:03;100919.70;;;-1.04;85.54
62864;BME280;48954;59.950;11.014;2024-03-17T08:01:29;100923.06;;;-0.81;85.11
62864;BME280;48954;59.950;11.014;2024-03-17T08:03:57;100922.36;;;-0.63;84.96
62864;BME280;48954;59.950;11.014;2024-03-17T08:06:23;100924.81;;;-0.42;85.06
62864;BME280;48954;59.950;11.014;2024-03-17T08:08:49;100931.07;;;-0.23;85.11
62864;BME280;48954;59.950;11.014;2024-03-17T08:11:15;100931.13;;;-0.07;84.69
62864;BME280;48954;59.950;11.014;2024-03-17T08:13:43;100928.64;;;0.12;84.70
62864;BME280;48954;59.950;11.014;2024-03-17T08:16:08;100931.16;;;0.27;84.32
62864;BME280;48954;59.950;11.014;2024-03-17T08:18:34;100927.64;;;0.48;84.52
62864;BME280;48954;59.950;11.014;2024-03-17T08:21:01;100922.59;;;0.69;84.34
62864;BME280;48954;59.950;11.014;2024-03-17T08:23:27;100924.17;;;0.90;84.63
62864;BME280;48954;59.950;11.014;2024-03-17T08:25:57;100923.19;;;1.10;84.44
62864;BME280;48954;59.950;11.014;2024-03-17T08:28:24;100925.12;;;1.31;84.78
62864;BME280;48954;59.950;11.014;2024-03-17T08:30:56;100937.73;;;1.49;85.06
62864;BME280;48954;59.950;11.014;2024-03-17T08:33:23;100946.02;;;1.62;84.99
62864;BME280;48954;59.950;11.014;2024-03-17T08:36:02;100951.65;;;1.84;85.15
62864;BME280;48954;59.950;11.014;2024-03-17T08:38:29;100947.88;;;2.06;84.80
62864;BME280;48954;59.950;11.014;2024-03-17T08:40:55;100946.28;;;2.29;84.62
62864;BME280;48954;59.950;11.014;2024-03-17T08:43:23;100942.97;;;2.45;83.81
62864;BME280;48954;59.950;11.014;2024-03-17T08:45:59;100944.59;;;2.60;83.21
62864;BME280;48954;59.950;11.014;2024-03-17T08:48:34;100943.41;;;2.84;82.98
62864;BME280;48954;59.950;11.014;2024-03-17T08:51:01;100943.83;;;3.08;82.60
62864;BME280;48954;59.950;11.014;2024-03-17T08:53:28;100948.84;;;3.41;82.60
62864;BME280;48954;59.950;11.014;2024-03-17T08:55:55;100952.55;;;3.69;82.21
62864;BME280;48954;59.950;11.014;2024-03-17T08:58:21;100953.94;;;3.91;81.69
62864;BME280;48954;59.950;11.014;2024-03-17T09:00:47;100957.41;;;4.22;82.27
62864;BME280;48954;59.950;11.014;2024-03-17T09:03:14;100955.11;;;4.49;82.41
62864;BME280;48954;59.950;11.014;2024-03-17T09:05:42;100956.69;;;4.63;81.64
62864;BME280;48954;59.950;11.014;2024-03-17T09:08:18;100961.95;;;4.70;81.51
62864;BME280;48954;59.950;11.014;2024-03-17T09:10:48;100963.34;;;4.78;81.15
62864;BME280;48954;59.950;11.014;2024-03-17T09:13:16;100965.83;;;4.95;81.08
62864;BME280;48954;59.950;11.014;2024-03-17T09:16:16;100967.05;;;5.16;80.42
62864;BME280;48954;59.950;11.014;2024-03-17T09:18:44;100976.10;;;5.46;80.72
62864;BME280;48954;59.950;11.014;2024-03-17T09:21:10;100977.06;;;5.68;81.21
62864;BME280;48954;59.950;11.014;2024-03-17T09:23:36;100976.73;;;6.00;81.62
62864;BME280;48954;59.950;11.014;2024-03-17T09:26:08;100976.09;;;6.19;81.51
62864;BME280;48954;59.950;11.014;2024-03-17T09:28:37;100978.21;;;6.23;81.00
62864;BME280;48954;59.950;11.014;2024-03-17T09:31:03;100973.72;;;6.22;80.64
62864;BME280;48954;59.950;11.014;2024-03-17T09:33:30;100973.08;;;6.51;81.24
62864;BME280;48954;59.950;11.014;2024-03-17T09:36:06;100975.73;;;6.84;81.16
62864;BME280;48954;59.950;11.014;2024-03-17T09:38:35;100980.60;;;6.94;79.85
62864;BME280;48954;59.950;11.014;2024-03-17T09:41:03;100980.33;;;7.01;79.11
62864;BME280;48954;59.950;11.014;2024-03-17T09:43:32;100979.33;;;7.45;78.59
62864;BME280;48954;59.950;11.014;2024-03-17T09:46:03;100976.48;;;7.66;77.49
62864;BME280;48954;59.950;11.014;2024-03-17T09:48:29;100974.98;;;7.99;77.89
62864;BME280;48954;59.950;11.014;2024-03-17T09:50:59;100971.56;;;8.16;77.33
62864;BME280;48954;59.950;11.014;2024-03-17T09:53:30;100972.79;;;8.64;76.93
62864;BME280;48954;59.950;11.014;2024-03-17T09:56:08;100970.48;;;9.00;76.32
62864;BME280;48954;59.950;11.014;2024-03-17T09:58:34;100968.63;;;9.04;76.51
62864;BME280;48954;59.950;11.014;2024-03-17T10:01:00;100973.20;;;9.16;76.79
62864;BME280;48954;59.950;11.014;2024-03-17T10:03:49;100975.80;;;9.28;75.94
62864;BME280;48954;59.950;11.014;2024-03-17T10:06:16;100976.69;;;9.38;75.64
62864;BME280;48954;59.950;11.014;2024-03-17T10:08:46;100971.69;;;9.73;74.47
62864;BME280;48954;59.950;11.014;2024-03-17T10:11:15;100976.70;;;10.10;73.49
62864;BME280;48954;59.950;11.014;2024-03-17T10:13:42;100976.13;;;10.58;71.64
62864;BME280;48954;59.950;11.014;2024-03-17T10:16:22;100978.12;;;10.52;71.61
62864;BME280;48954;59.950;11.014;2024-03-17T10:18:48;100980.69;;;10.60;71.11
62864;BME280;48954;59.950;11.014;2024-03-17T10:21:26;100987.63;;;11.05;69.93
62864;BME280;48954;59.950;11.014;2024-03-17T10:24:19;100986.52;;;11.25;70.28
62864;BME280;48954;59.950;11.014;2024-03-17T10:26:56;100983.53;;;10.66;70.72
62864;BME280;48954;59.950;11.014;2024-03-17T10:29:34;100974.21;;;10.37;68.98
62864;BME280;48954;59.950;11.014;2024-03-17T10:32:03;100979.30;;;9.94;69.70
62864;BME280;48954;59.950;11.014;2024-03-17T10:34:30;100976.03;;;9.70;70.34
62864;BME280;48954;59.950;11.014;2024-03-17T10:37:24;100975.36;;;9.95;68.54
62864;BME280;48954;59.950;11.014;2024-03-17T10:39:51;100976.50;;;10.60;67.10
62864;BME280;48954;59.950;11.014;2024-03-17T10:42:32;100983.66;;;11.12;66.31
62864;BME280;48954;59.950;11.014;2024-03-17T10:44:58;100989.83;;;11.43;65.84
62864;BME280;48954;59.950;11.014;2024-03-17T10:47:26;100987.80;;;10.94;64.88
62864;BME280;48954;59.950;11.014;2024-03-17T10:49:53;100987.88;;;9.94;64.95
62864;BME280;48954;59.950;11.014;2024-03-17T10:52:20;100992.52;;;9.66;66.00
62864;BME280;48954;59.950;11.014;2024-03-17T10:54:51;100994.78;;;10.06;64.72
62864;BME280;48954;59.950;11.014;2024-03-17T11:00:06;100989.02;;;10.78;64.75
62864;BME280;48954;59.950;11.014;2024-03-17T11:02:33;100985.98;;;11.38;64.70
62864;BME280;48954;59.950;11.014;2024-03-17T11:05:05;100983.04;;;12.25;63.55
62864;BME280;48954;59.950;11.014;2024-03-17T11:07:31;100983.50;;;12.78;63.05
62864;BME280;48954;59.950;11.014;2024-03-17T11:09:59;100983.41;;;13.02;62.19
62864;BME280;48954;59.950;11.014;2024-03-17T11:12:45;100982.33;;;12.83;61.56
62864;BME280;48954;59.950;11.014;2024-03-17T11:17:53;100977.52;;;14.46;58.55
62864;BME280;48954;59.950;11.014;2024-03-17T11:20:27;100979.73;;;14.79;57.40
62864;BME280;48954;59.950;11.014;2024-03-17T11:22:55;100979.29;;;14.30;56.81
62864;BME280;48954;59.950;11.014;2024-03-17T11:27:53;100981.76;;;12.85;57.54
62864;BME280;48954;59.950;11.014;2024-03-17T11:39:06;100967.14;;;12.87;56.30
62864;BME280;48954;59.950;11.014;2024-03-17T11:41:39;100966.17;;;12.67;56.55
62864;BME280;48954;59.950;11.014;2024-03-17T11:47:02;100966.16;;;13.84;51.95
62864;BME280;48954;59.950;11.014;2024-03-17T11:49:33;100964.21;;;14.86;51.31
62864;BME280;48954;59.950;11.014;2024-03-17T11:52:01;100960.50;;;14.61;52.36
62864;BME280;48954;59.950;11.014;2024-03-17T11:54:30;100969.05;;;14.10;52.37
62864;BME280;48954;59.950;11.014;2024-03-17T11:57:01;100969.41;;;13.39;51.27
62864;BME280;48954;59.950;11.014;2024-03-17T11:59:27;100968.34;;;12.16;51.02
62864;BME280;48954;59.950;11.014;2024-03-17T12:01:53;100964.92;;;11.08;51.44
62864;BME280;48954;59.950;11.014;2024-03-17T12:04:21;100960.56;;;10.72;50.49
62864;BME280;48954;59.950;11.014;2024-03-17T12:06:48;100964.65;;;10.28;50.69
62864;BME280;48954;59.950;11.014;2024-03-17T12:09:24;100967.66;;;10.35;50.26
62864;BME280;48954;59.950;11.014;2024-03-17T12:12:08;100963.05;;;10.25;49.65
62864;BME280;48954;59.950;11.014;2024-03-17T12:14:38;100957.50;;;9.30;49.92
62864;BME280;48954;59.950;11.014;2024-03-17T12:17:07;100967.02;;;8.68;50.30
62864;BME280;48954;59.950;11.014;2024-03-17T12:19:34;100967.83;;;8.32;49.92
62864;BME280;48954;59.950;11.014;2024-03-17T12:22:02;100960.27;;;7.97;50.01
62864;BME280;48954;59.950;11.014;2024-03-17T12:24:29;100958.07;;;7.57;50.23
62864;BME280;48954;59.950;11.014;2024-03-17T12:26:58;100957.75;;;7.09;50.10
62864;BME280;48954;59.950;11.014;2024-03-17T12:29:34;100959.48;;;6.84;50.42
62864;BME280;48954;59.950;11.014;2024-03-17T12:32:02;100954.63;;;6.50;50.38
62864;BME280;48954;59.950;11.014;2024-03-17T12:34:29;100948.34;;;6.36;50.60
62864;BME280;48954;59.950;11.014;2024-03-17T12:36:58;100937.98;;;6.38;50.70
62864;BME280;48954;59.950;11.014;2024-03-17T12:42:15;100940.52;;;6.70;51.35
62864;BME280;48954;59.950;11.014;2024-03-17T12:44:58;100936.25;;;7.18;50.04
62864;BME280;48954;59.950;11.014;2024-03-17T12:47:26;100932.50;;;7.43;49.97
62864;BME280;48954;59.950;11.014;2024-03-17T12:49:56;100932.40;;;7.38;49.64
62864;BME280;48954;59.950;11.014;2024-03-17T12:52:24;100933.41;;;7.18;50.17
62864;BME280;48954;59.950;11.014;2024-03-17T12:57:28;100943.41;;;6.65;50.73
62864;BME280;48954;59.950;11.014;2024-03-17T12:59:54;100940.55;;;6.60;51.35
62864;BME280;48954;59.950;11.014;2024-03-17T13:02:20;100941.78;;;6.77;51.35
62864;BME280;48954;59.950;11.014;2024-03-17T13:04:46;100944.34;;;6.62;50.88
62864;BME280;48954;59.950;11.014;2024-03-17T13:07:11;100941.48;;;6.27;51.00
62864;BME280;48954;59.950;11.014;2024-03-17T13:09:37;100939.73;;;6.05;51.29
62864;BME280;48954;59.950;11.014;2024-03-17T13:12:14;100940.63;;;5.92;51.57
62864;BME280;48954;59.950;11.014;2024-03-17T13:14:40;100934.41;;;5.79;51.45